Time;durP1;ratioP1;P1;durP2;ratioP2;P2;SDS_P1;SDS_P2;PMS_P1;PMS_P2;Temp;Humidity;BMP_temperature;BMP_pressure;BME280_temperature;BME280_humidity;BME280_pressure;Samples;Min_cycle;Max_cycle;Signal;HPM_P1;HPM_P2
2022/09/16 00:00:23;;;;;;;1999.90;999.90;;;;;;;-144.65;100.00;64500.88;5010650;28;20084;-76
2022/09/16 00:02:53;;;;;;;1999.90;999.90;;;;;;;-144.65;100.00;64500.88;5011347;28;20040;-77
2022/09/16 00:05:19;;;;;;;1999.90;999.90;;;;;;;-144.65;100.00;64500.88;5011315;28;20108;-76
2022/09/16 00:07:44;;;;;;;1999.90;999.90;;;;;;;-144.65;100.00;64500.88;5011098;28;20121;-76
2022/09/16 00:10:10;;;;;;;1999.90;999.90;;;;;;;-144.65;100.00;64500.88;5011358;28;20048;-77
2022/09/16 00:12:36;;;;;;;1999.90;999.90;;;;;;;-144.65;100.00;64500.88;5006552;28;20026;-76
2022/09/16 00:15:03;;;;;;;1999.90;999.90;;;;;;;-144.65;100.00;64500.88;5009230;28;20025;-76
2022/09/16 00:17:28;;;;;;;1999.90;999.90;;;;;;;-144.65;100.00;64500.88;5014377;28;20041;-76
2022/09/16 00:19:54;;;;;;;1999.90;999.90;;;;;;;-144.65;100.00;64500.88;5016854;28;20018;-76
2022/09/16 00:22:20;;;;;;;1999.90;999.90;;;;;;;-144.65;100.00;64500.88;5010355;28;20443;-76
2022/09/16 00:24:47;;;;;;;1999.90;999.90;;;;;;;-144.65;100.00;64500.88;5008968;28;20068;-76
2022/09/16 00:27:12;;;;;;;1999.90;999.90;;;;;;;-144.65;100.00;64500.88;5010003;28;20028;-77
2022/09/16 00:29:38;;;;;;;1999.90;999.90;;;;;;;-144.65;100.00;64500.88;5011092;28;20385;-77
2022/09/16 00:32:03;;;;;;;1999.90;999.90;;;;;;;-144.65;100.00;64500.88;5010410;28;20463;-78
2022/09/16 00:34:28;;;;;;;1999.90;999.90;;;;;;;-144.65;100.00;64500.88;5009830;28;20040;-77
2022/09/16 00:36:54;;;;;;;1999.90;999.90;;;;;;;-144.65;100.00;64500.88;5008842;28;20042;-77
2022/09/16 00:39:19;;;;;;;1999.90;999.90;;;;;;;-144.65;100.00;64500.88;5010627;28;20063;-77
2022/09/16 00:41:44;;;;;;;1999.90;999.90;;;;;;;-144.65;100.00;64500.88;5010861;28;20360;-77
2022/09/16 00:44:47;;;;;;;1999.90;999.90;;;;;;;-144.65;100.00;64500.88;5011146;28;20796;-77
2022/09/16 00:47:17;;;;;;;1999.90;999.90;;;;;;;-144.65;100.00;64500.88;5010768;28;20076;-76
2022/09/16 00:49:42;;;;;;;1999.90;999.90;;;;;;;-144.65;100.00;64500.88;5010673;28;20033;-76
2022/09/16 00:52:08;;;;;;;1999.90;999.90;;;;;;;-144.65;100.00;64500.88;5010641;28;20030;-76
2022/09/16 00:54:37;;;;;;;1999.90;999.90;;;;;;;-144.65;100.00;64500.88;5009887;28;20025;-76
2022/09/16 00:57:06;;;;;;;1999.90;999.90;;;;;;;-144.65;100.00;64500.88;5009094;28;20038;-76
2022/09/16 00:59:41;;;;;;;1999.90;999.90;;;;;;;-144.65;100.00;64500.88;5010543;28;20084;-76
2022/09/16 01:02:12;;;;;;;1999.90;999.90;;;;;;;-144.65;100.00;64500.88;5012405;28;20022;-76
2022/09/16 01:04:44;;;;;;;1999.90;999.90;;;;;;;-144.65;100.00;64500.88;5014010;28;20030;-77
2022/09/16 01:07:10;;;;;;;1999.90;999.90;;;;;;;-144.65;100.00;64500.88;5014364;28;20032;-77
2022/09/16 01:09:37;;;;;;;1999.90;999.90;;;;;;;-144.65;100.00;64500.88;5014349;28;20112;-77
2022/09/16 01:12:02;;;;;;;1999.90;999.90;;;;;;;-144.65;100.00;64500.88;5014561;28;20026;-76
2022/09/16 01:17:35;;;;;;;1999.90;999.90;;;;;;;-144.65;100.00;64500.88;5013804;28;20053;-77
2022/09/16 01:20:30;;;;;;;1999.90;999.90;;;;;;;-144.65;100.00;64500.88;5013341;28;20073;-77
2022/09/16 01:23:24;;;;;;;1999.90;999.90;;;;;;;-144.65;100.00;64500.88;5013865;28;20040;-77
2022/09/16 01:26:05;;;;;;;1999.90;999.90;;;;;;;-144.65;100.00;64500.88;4976756;28;20410;-76
2022/09/16 01:28:30;;;;;;;1999.90;999.90;;;;;;;-144.65;100.00;64500.88;5013911;28;20036;-76
2022/09/16 01:31:29;;;;;;;1999.90;999.90;;;;;;;-144.65;100.00;64500.88;5015165;28;20029;-76
2022/09/16 01:34:13;;;;;;;1999.90;999.90;;;;;;;-144.65;100.00;64500.88;5015535;28;20837;-77
2022/09/16 01:36:44;;;;;;;1999.90;999.90;;;;;;;-144.65;100.00;64500.88;5015131;28;20050;-77
2022/09/16 01:39:25;;;;;;;1999.90;999.90;;;;;;;-144.65;100.00;64500.88;5015742;28;20021;-77
2022/09/16 01:42:02;;;;;;;1999.90;999.90;;;;;;;-144.65;100.00;64500.88;5017292;28;20087;-78
2022/09/16 01:44:38;;;;;;;1999.90;999.90;;;;;;;-144.65;100.00;64500.88;5014985;28;20410;-77
2022/09/16 01:47:13;;;;;;;1999.90;999.90;;;;;;;-144.65;100.00;64500.88;5020853;28;20029;-78
2022/09/16 01:49:48;;;;;;;1999.90;999.90;;;;;;;-144.65;100.00;64500.88;5024297;28;20022;-77
2022/09/16 01:52:13;;;;;;;;;;;;;;;-144.65;100.00;64500.88;5014854;28;20065;-77
2022/09/16 01:54:45;;;;;;;1999.90;999.90;;;;;;;-144.65;100.00;64500.88;5013973;28;20319;-78
2022/09/16 01:57:19;;;;;;;1999.90;999.90;;;;;;;-144.65;100.00;64500.88;5012785;28;20026;-77
2022/09/16 01:59:57;;;;;;;1999.90;999.90;;;;;;;-144.65;100.00;64500.88;5001726;28;20025;-77
2022/09/16 02:02:47;;;;;;;1999.90;999.90;;;;;;;-144.65;100.00;64500.88;5013880;28;20030;-78
2022/09/16 02:05:18;;;;;;;1999.90;999.90;;;;;;;-144.65;100.00;64500.88;5000614;28;20057;-77
2022/09/16 02:07:49;;;;;;;1999.90;999.90;;;;;;;-144.65;100.00;64500.88;4997823;28;20077;-77
2022/09/16 02:10:30;;;;;;;1999.90;999.90;;;;;;;-144.65;100.00;64500.88;4993359;28;20476;-77
2022/09/16 02:13:04;;;;;;;1999.90;999.90;;;;;;;-144.65;100.00;64500.88;4993153;28;20480;-77
2022/09/16 02:15:32;;;;;;;1999.90;999.90;;;;;;;-144.65;100.00;64500.88;4993915;28;20030;-77
2022/09/16 02:18:03;;;;;;;1999.90;999.90;;;;;;;-144.65;100.00;64500.88;4995192;28;20056;-77
2022/09/16 02:20:31;;;;;;;1999.90;999.90;;;;;;;-144.65;100.00;64500.88;5012679;28;20022;-77
2022/09/16 02:23:13;;;;;;;1999.90;999.90;;;;;;;-144.65;100.00;64500.88;4994870;28;20026;-76
2022/09/16 02:25:42;;;;;;;1999.90;999.90;;;;;;;-144.65;100.00;64500.88;5012296;28;20030;-77
2022/09/16 02:28:12;;;;;;;1999.90;999.90;;;;;;;-144.65;100.00;64500.88;5012288;28;20037;-76
2022/09/16 02:30:42;;;;;;;1999.90;999.90;;;;;;;-144.65;100.00;64500.88;5012487;28;20014;-77
2022/09/16 02:33:12;;;;;;;1999.90;999.90;;;;;;;-144.65;100.00;64500.88;5012308;28;20029;-76
2022/09/16 02:35:39;;;;;;;1999.90;999.90;;;;;;;-144.65;100.00;64500.88;5012093;28;20446;-77
2022/09/16 02:38:21;;;;;;;1999.90;999.90;;;;;;;-144.65;100.00;64500.88;5012248;28;20017;-77
2022/09/16 02:40:54;;;;;;;1999.90;999.90;;;;;;;-144.65;100.00;64500.88;5012495;28;20462;-77
2022/09/16 02:43:20;;;;;;;1999.90;999.90;;;;;;;-144.65;100.00;64500.88;5012760;28;20044;-77
2022/09/16 02:46:10;;;;;;;1999.90;999.90;;;;;;;-144.65;100.00;64500.88;5012435;28;20104;-77
2022/09/16 02:48:51;;;;;;;1999.90;999.90;;;;;;;-144.65;100.00;64500.88;5012604;28;20710;-76
2022/09/16 02:51:19;;;;;;;1999.90;999.90;;;;;;;-144.65;100.00;64500.88;4994378;28;20433;-77
2022/09/16 02:53:56;;;;;;;1999.90;999.90;;;;;;;-144.65;100.00;64500.88;4996765;28;20018;-77
2022/09/16 02:56:28;;;;;;;1999.90;999.90;;;;;;;-144.65;100.00;64500.88;4991809;28;20483;-77
2022/09/16 02:58:54;;;;;;;1999.90;999.90;;;;;;;-144.65;100.00;64500.88;4992055;28;20434;-77
2022/09/16 03:01:21;;;;;;;1999.90;999.90;;;;;;;-144.65;100.00;64500.88;4991658;28;20073;-76
2022/09/16 03:03:46;;;;;;;1999.90;999.90;;;;;;;-144.65;100.00;64500.88;5001901;28;20034;-76
2022/09/16 03:06:16;;;;;;;1999.90;999.90;;;;;;;-144.65;100.00;64500.88;5010323;28;20434;-77
2022/09/16 03:08:43;;;;;;;1999.90;999.90;;;;;;;-144.65;100.00;64500.88;5011083;28;20544;-77
2022/09/16 03:11:17;;;;;;;1999.90;999.90;;;;;;;-144.65;100.00;64500.88;5011051;28;20407;-77
2022/09/16 03:13:53;;;;;;;1999.90;999.90;;;;;;;-144.65;100.00;64500.88;5010812;28;20072;-77
2022/09/16 03:16:27;;;;;;;1999.90;999.90;;;;;;;-144.65;100.00;64500.88;5011295;28;20942;-77
2022/09/16 03:19:08;;;;;;;1999.90;999.90;;;;;;;-144.65;100.00;64500.88;5011442;28;20036;-77
2022/09/16 03:21:58;;;;;;;1999.90;999.90;;;;;;;-144.65;100.00;64500.88;5011352;28;20014;-76
2022/09/16 03:24:46;;;;;;;1999.90;999.90;;;;;;;-144.65;100.00;64500.88;5010610;28;20033;-77
2022/09/16 03:27:17;;;;;;;1999.90;999.90;;;;;;;-144.65;100.00;64500.88;5011574;28;20037;-77
2022/09/16 03:30:03;;;;;;;1999.90;999.90;;;;;;;-144.65;100.00;64500.88;5011289;28;20029;-76
2022/09/16 03:32:37;;;;;;;1999.90;999.90;;;;;;;-144.65;100.00;64500.88;5011287;28;20387;-76
2022/09/16 03:35:22;;;;;;;1999.90;999.90;;;;;;;-144.65;100.00;64500.88;5014564;28;20034;-77
2022/09/16 03:37:49;;;;;;;1999.90;999.90;;;;;;;-144.65;100.00;64500.88;5019230;28;20018;-78
2022/09/16 03:40:17;;;;;;;1999.90;999.90;;;;;;;-144.65;100.00;64500.88;5015072;28;20037;-77
2022/09/16 03:42:44;;;;;;;1999.90;999.90;;;;;;;-144.65;100.00;64500.88;5012633;28;20026;-77
2022/09/16 03:45:14;;;;;;;1999.90;999.90;;;;;;;-144.65;100.00;64500.88;5012220;28;20037;-77
2022/09/16 03:47:40;;;;;;;1999.90;999.90;;;;;;;-144.65;100.00;64500.88;5012109;28;20545;-76
2022/09/16 03:50:05;;;;;;;1999.90;999.90;;;;;;;-144.65;100.00;64500.88;5013027;28;20030;-76
2022/09/16 03:52:31;;;;;;;1999.90;999.90;;;;;;;-144.65;100.00;64500.88;5016623;28;20029;-76
2022/09/16 03:54:56;;;;;;;1999.90;999.90;;;;;;;-144.65;100.00;64500.88;5012351;28;20026;-76
2022/09/16 03:57:21;;;;;;;1999.90;999.90;;;;;;;-144.65;100.00;64500.88;5012350;28;20033;-76
2022/09/16 03:59:47;;;;;;;1999.90;999.90;;;;;;;-144.65;100.00;64500.88;5011510;28;20018;-77
2022/09/16 04:02:12;;;;;;;1999.90;999.90;;;;;;;-144.65;100.00;64500.88;5011786;28;20060;-76
2022/09/16 04:04:37;;;;;;;1999.90;999.90;;;;;;;-144.65;100.00;64500.88;5009340;28;20121;-76
2022/09/16 04:07:03;;;;;;;1999.90;999.90;;;;;;;-144.65;100.00;64500.88;4999797;28;20018;-77
2022/09/16 04:09:28;;;;;;;1999.90;999.90;;;;;;;-144.65;100.00;64500.88;5010977;28;20475;-77
2022/09/16 04:11:53;;;;;;;1999.90;999.90;;;;;;;-144.65;100.00;64500.88;4997763;28;20034;-76
2022/09/16 04:14:19;;;;;;;1999.90;999.90;;;;;;;-144.65;100.00;64500.88;4992082;28;20026;-77
2022/09/16 04:16:44;;;;;;;1999.90;999.90;;;;;;;-144.65;100.00;64500.88;4992592;28;20065;-76
2022/09/16 04:19:12;;;;;;;1999.90;999.90;;;;;;;-144.65;100.00;64500.88;4992718;28;20035;-76
2022/09/16 04:21:38;;;;;;;1999.90;999.90;;;;;;;-144.65;100.00;64500.88;4992544;28;20026;-77
2022/09/16 04:24:03;;;;;;;1999.90;999.90;;;;;;;-144.65;100.00;64500.88;5005695;28;20414;-77
2022/09/16 04:26:29;;;;;;;1999.90;999.90;;;;;;;-144.65;100.00;64500.88;5012831;28;20116;-76
2022/09/16 04:28:56;;;;;;;1999.90;999.90;;;;;;;-144.65;100.00;64500.88;5013916;28;20026;-77
2022/09/16 04:31:21;;;;;;;1999.90;999.90;;;;;;;-144.65;100.00;64500.88;5013071;28;20026;-76
2022/09/16 04:33:46;;;;;;;1999.90;999.90;;;;;;;-144.65;100.00;64500.88;5020905;28;20033;-79
2022/09/16 04:36:18;;;;;;;1999.90;999.90;;;;;;;-144.65;100.00;64500.88;5025922;28;20053;-80
2022/09/16 04:38:45;;;;;;;1999.90;999.90;;;;;;;-144.65;100.00;64500.88;5031768;28;20490;-79
2022/09/16 04:41:19;;;;;;;1999.90;999.90;;;;;;;-144.65;100.00;64500.88;5027175;28;20078;-79
2022/09/16 04:43:45;;;;;;;1999.90;999.90;;;;;;;-144.65;100.00;64500.88;5024311;28;20040;-79
2022/09/16 04:46:11;;;;;;;1999.90;999.90;;;;;;;-144.65;100.00;64500.88;5019661;28;20026;-77
2022/09/16 04:48:38;;;;;;;1999.90;999.90;;;;;;;-144.65;100.00;64500.88;5021181;28;20501;-79
2022/09/16 04:51:07;;;;;;;1999.90;999.90;;;;;;;-144.65;100.00;64500.88;5028305;28;20118;-80
2022/09/16 04:53:32;;;;;;;1999.90;999.90;;;;;;;-144.65;100.00;64500.88;5025427;28;20344;-80
2022/09/16 04:56:07;;;;;;;1999.90;999.90;;;;;;;-144.65;100.00;64500.88;5027786;28;20537;-80
2022/09/16 04:58:33;;;;;;;1999.90;999.90;;;;;;;-144.65;100.00;64500.88;5034393;28;20012;-78
2022/09/16 05:01:06;;;;;;;1999.90;999.90;;;;;;;-144.65;100.00;64500.88;5034194;28;20018;-79
2022/09/16 05:03:32;;;;;;;1999.90;999.90;;;;;;;-144.65;100.00;64500.88;5027342;28;20018;-79
2022/09/16 05:06:09;;;;;;;1999.90;999.90;;;;;;;-144.65;100.00;64500.88;5029677;28;20094;-80
2022/09/16 05:08:37;;;;;;;1999.90;999.90;;;;;;;-144.65;100.00;64500.88;5039440;28;20020;-73
2022/09/16 05:11:08;;;;;;;1999.90;999.90;;;;;;;-144.65;100.00;64500.88;5041067;28;20029;-76
2022/09/16 05:13:34;;;;;;;1999.90;999.90;;;;;;;-144.65;100.00;64500.88;5041457;28;20026;-73
2022/09/16 05:16:02;;;;;;;1999.90;999.90;;;;;;;-144.65;100.00;64500.88;5041105;28;20078;-74
2022/09/16 05:18:27;;;;;;;1999.90;999.90;;;;;;;-144.65;100.00;64500.88;5041173;28;20086;-75
2022/09/16 05:21:00;;;;;;;1999.90;999.90;;;;;;;-144.65;100.00;64500.88;5041102;28;20014;-72
2022/09/16 05:23:26;;;;;;;1999.90;999.90;;;;;;;-144.65;100.00;64500.88;5040835;28;20033;-78
2022/09/16 05:25:52;;;;;;;1999.90;999.90;;;;;;;-144.65;100.00;64500.88;5054522;28;20030;-79
2022/09/16 05:28:18;;;;;;;1999.90;999.90;;;;;;;-144.65;100.00;64500.88;5059850;28;20012;-74
2022/09/16 05:30:43;;;;;;;1999.90;999.90;;;;;;;-144.65;100.00;64500.88;5060520;28;20013;-75
2022/09/16 05:33:08;;;;;;;1999.90;999.90;;;;;;;-144.65;100.00;64500.88;5046370;28;20041;-77
2022/09/16 05:35:34;;;;;;;1999.90;999.90;;;;;;;-144.65;100.00;64500.88;5040314;28;20061;-74
2022/09/16 05:37:59;;;;;;;1999.90;999.90;;;;;;;-144.65;100.00;64500.88;5040606;28;20056;-73
2022/09/16 05:40:26;;;;;;;1999.90;999.90;;;;;;;-144.65;100.00;64500.88;5040679;28;20017;-76
2022/09/16 05:42:52;;;;;;;1999.90;999.90;;;;;;;-144.65;100.00;64500.88;5040252;28;20014;-75
2022/09/16 05:45:17;;;;;;;1999.90;999.90;;;;;;;-144.65;100.00;64500.88;5040122;28;20013;-78
2022/09/16 05:47:47;;;;;;;1999.90;999.90;;;;;;;-144.65;100.00;64500.88;5036227;28;20026;-79
2022/09/16 05:50:14;;;;;;;1999.90;999.90;;;;;;;-144.65;100.00;64500.88;5037655;28;20037;-79
2022/09/16 05:52:58;;;;;;;1999.90;999.90;;;;;;;-144.65;100.00;64500.88;5040419;28;20010;-74
2022/09/16 05:55:25;;;;;;;1999.90;999.90;;;;;;;-144.65;100.00;64500.88;5040123;28;20025;-77
2022/09/16 05:57:50;;;;;;;1999.90;999.90;;;;;;;-144.65;100.00;64500.88;5039279;28;20018;-77
2022/09/16 06:00:16;;;;;;;1999.90;999.90;;;;;;;-144.65;100.00;64500.88;5022984;28;20081;-74
2022/09/16 06:02:41;;;;;;;1999.90;999.90;;;;;;;-144.65;100.00;64500.88;5022592;28;20045;-75
2022/09/16 06:05:07;;;;;;;1999.90;999.90;;;;;;;-144.65;100.00;64500.88;5038945;28;20022;-74
2022/09/16 06:07:32;;;;;;;1999.90;999.90;;;;;;;-144.65;100.00;64500.88;5039986;28;20021;-74
2022/09/16 06:09:57;;;;;;;1999.90;999.90;;;;;;;-144.65;100.00;64500.88;5038989;28;20022;-74
2022/09/16 06:12:23;;;;;;;1999.90;999.90;;;;;;;-144.65;100.00;64500.88;5039887;28;20021;-76
2022/09/16 06:14:48;;;;;;;1999.90;999.90;;;;;;;-144.65;100.00;64500.88;5040328;28;20037;-73
2022/09/16 06:17:13;;;;;;;1999.90;999.90;;;;;;;-144.65;100.00;64500.88;5040056;28;20006;-74
2022/09/16 06:19:39;;;;;;;1999.90;999.90;;;;;;;-144.65;100.00;64500.88;5039891;28;20014;-74
2022/09/16 06:22:04;;;;;;;1999.90;999.90;;;;;;;-144.65;100.00;64500.88;5039939;28;20025;-74
2022/09/16 06:24:29;;;;;;;1999.90;999.90;;;;;;;-144.65;100.00;64500.88;5022948;28;20033;-80
2022/09/16 06:26:54;;;;;;;1999.90;999.90;;;;;;;-144.65;100.00;64500.88;5039773;28;20030;-75
2022/09/16 06:29:20;;;;;;;1999.90;999.90;;;;;;;-144.65;100.00;64500.88;5039752;28;20030;-77
2022/09/16 06:31:45;;;;;;;1999.90;999.90;;;;;;;-144.65;100.00;64500.88;5039446;28;20044;-77
2022/09/16 06:34:17;;;;;;;1999.90;999.90;;;;;;;-144.65;100.00;64500.88;5039669;28;20085;-78
2022/09/16 06:36:42;;;;;;;1999.90;999.90;;;;;;;-144.65;100.00;64500.88;5038395;28;20054;-74
2022/09/16 06:39:10;;;;;;;1999.90;999.90;;;;;;;-144.65;100.00;64500.88;5039491;28;20045;-74
2022/09/16 06:41:35;;;;;;;1999.90;999.90;;;;;;;-144.65;100.00;64500.88;5039489;28;20546;-75
2022/09/16 06:44:01;;;;;;;1999.90;999.90;;;;;;;-144.65;100.00;64500.88;5039675;28;20034;-77
2022/09/16 06:46:27;;;;;;;1999.90;999.90;;;;;;;-144.65;100.00;64500.88;5038944;28;20021;-76
2022/09/16 06:48:56;;;;;;;1999.90;999.90;;;;;;;-144.65;100.00;64500.88;5022212;28;20056;-77
2022/09/16 06:51:24;;;;;;;1999.90;999.90;;;;;;;-144.65;100.00;64500.88;5039408;28;20045;-75
2022/09/16 06:53:51;;;;;;;1999.90;999.90;;;;;;;-144.65;100.00;64500.88;5039210;28;20006;-77
2022/09/16 06:56:19;;;;;;;1999.90;999.90;;;;;;;-144.65;100.00;64500.88;5037274;28;20034;-76
2022/09/16 06:58:47;;;;;;;1999.90;999.90;;;;;;;-144.65;100.00;64500.88;5038481;28;20073;-77
2022/09/16 07:01:16;;;;;;;1999.90;999.90;;;;;;;-144.65;100.00;64500.88;5039039;28;20010;-77
2022/09/16 07:03:44;;;;;;;1999.90;999.90;;;;;;;-144.65;100.00;64500.88;5039057;28;20029;-77
2022/09/16 07:06:11;;;;;;;1999.90;999.90;;;;;;;-144.65;100.00;64500.88;5038834;28;20037;-74
2022/09/16 07:08:37;;;;;;;1999.90;999.90;;;;;;;-144.65;100.00;64500.88;5037233;28;20082;-79
2022/09/16 07:11:09;;;;;;;1999.90;999.90;;;;;;;-144.65;100.00;64500.88;5036036;28;20049;-80
2022/09/16 07:13:35;;;;;;;1999.90;999.90;;;;;;;-144.65;100.00;64500.88;5037455;28;20057;-78
2022/09/16 07:16:03;;;;;;;1999.90;999.90;;;;;;;-144.65;100.00;64500.88;5038216;28;20022;-75
2022/09/16 07:18:29;;;;;;;1999.90;999.90;;;;;;;-144.65;100.00;64500.88;5037723;28;20038;-78
2022/09/16 07:21:02;;;;;;;1999.90;999.90;;;;;;;-144.65;100.00;64500.88;5035128;28;20064;-78
2022/09/16 07:23:32;;;;;;;1999.90;999.90;;;;;;;-144.65;100.00;64500.88;5035676;28;20085;-76
2022/09/16 07:26:25;;;;;;;1999.90;999.90;;;;;;;-144.65;100.00;64500.88;5036460;28;20025;-78
2022/09/16 07:28:51;;;;;;;1999.90;999.90;;;;;;;-144.65;100.00;64500.88;5033802;28;20041;-76
2022/09/16 07:31:24;;;;;;;1999.90;999.90;;;;;;;-144.65;100.00;64500.88;5036264;28;20061;-78
2022/09/16 07:33:51;;;;;;;1999.90;999.90;;;;;;;-144.65;100.00;64500.88;5032389;28;20038;-81
2022/09/16 07:36:22;;;;;;;1999.90;999.90;;;;;;;-144.65;100.00;64500.88;5033041;28;20053;-78
2022/09/16 07:38:49;;;;;;;1999.90;999.90;;;;;;;-144.65;100.00;64500.88;5032133;28;20093;-80
2022/09/16 07:41:17;;;;;;;1999.90;999.90;;;;;;;-144.65;100.00;64500.88;5031161;28;20497;-78
2022/09/16 07:43:43;;;;;;;1999.90;999.90;;;;;;;-144.65;100.00;64500.88;5031801;28;20030;-79
2022/09/16 07:46:10;;;;;;;1999.90;999.90;;;;;;;-144.65;100.00;64500.88;5035433;28;20029;-77
2022/09/16 07:48:36;;;;;;;1999.90;999.90;;;;;;;-144.65;100.00;64500.88;5037698;28;20049;-75
2022/09/16 07:51:07;;;;;;;1999.90;999.90;;;;;;;-144.65;100.00;64500.88;5037553;28;20068;-78
2022/09/16 07:53:34;;;;;;;1999.90;999.90;;;;;;;-144.65;100.00;64500.88;5035822;28;20014;-77
2022/09/16 07:56:03;;;;;;;1999.90;999.90;;;;;;;-144.65;100.00;64500.88;5037498;28;20022;-74
2022/09/16 07:58:29;;;;;;;1999.90;999.90;;;;;;;-144.65;100.00;64500.88;5038105;28;20018;-76
2022/09/16 08:00:54;;;;;;;1999.90;999.90;;;;;;;-144.65;100.00;64500.88;5036793;28;20029;-74
2022/09/16 08:03:22;;;;;;;1999.90;999.90;;;;;;;-144.65;100.00;64500.88;5036169;28;20049;-79
2022/09/16 08:05:48;;;;;;;1999.90;999.90;;;;;;;-144.65;100.00;64500.88;5037650;28;19998;-74
2022/09/16 08:08:13;;;;;;;1999.90;999.90;;;;;;;-144.65;100.00;64500.88;5038167;28;20010;-75
2022/09/16 08:10:39;;;;;;;1999.90;999.90;;;;;;;-144.65;100.00;64500.88;5037360;28;20066;-75
2022/09/16 08:13:05;;;;;;;1999.90;999.90;;;;;;;-144.65;100.00;64500.88;5037254;28;20030;-78
2022/09/16 08:15:31;;;;;;;1999.90;999.90;;;;;;;-144.65;100.00;64500.88;5038193;28;20018;-77
2022/09/16 08:17:56;;;;;;;1999.90;999.90;;;;;;;-144.65;100.00;64500.88;5037995;28;20017;-76
2022/09/16 08:20:23;;;;;;;1999.90;999.90;;;;;;;-144.65;100.00;64500.88;5038009;28;20073;-74
2022/09/16 08:22:48;;;;;;;1999.90;999.90;;;;;;;-144.65;100.00;64500.88;5038057;28;20006;-75
2022/09/16 08:25:13;;;;;;;1999.90;999.90;;;;;;;-144.65;100.00;64500.88;5037925;28;20059;-75
2022/09/16 08:27:39;;;;;;;1999.90;999.90;;;;;;;-144.65;100.00;64500.88;5034713;28;20045;-77
2022/09/16 08:30:05;;;;;;;1999.90;999.90;;;;;;;-144.65;100.00;64500.88;5031148;28;20060;-77
2022/09/16 08:32:30;;;;;;;1999.90;999.90;;;;;;;-144.65;100.00;64500.88;5026966;28;20021;-75
2022/09/16 08:34:55;;;;;;;1999.90;999.90;;;;;;;-144.65;100.00;64500.88;5035276;28;20029;-74
2022/09/16 08:37:21;;;;;;;1999.90;999.90;;;;;;;-144.65;100.00;64500.88;5033208;28;20030;-79
2022/09/16 08:39:47;;;;;;;1999.90;999.90;;;;;;;-144.65;100.00;64500.88;5036007;28;20449;-80
2022/09/16 08:42:30;;;;;;;1999.90;999.90;;;;;;;-144.65;100.00;64500.88;5036540;28;20038;-77
2022/09/16 08:45:08;;;;;;;1999.90;999.90;;;;;;;-144.65;100.00;64500.88;5037201;28;20017;-77
2022/09/16 08:48:08;;;;;;;1999.90;999.90;;;;;;;-144.65;100.00;64500.88;5038792;28;20055;-78
2022/09/16 08:50:38;;;;;;;1999.90;999.90;;;;;;;-144.65;100.00;64500.88;5016130;28;20099;-80
2022/09/16 08:53:10;;;;;;;1999.90;999.90;;;;;;;-144.65;100.00;64500.88;5031811;28;20037;-81
2022/09/16 08:55:45;;;;;;;1999.90;999.90;;;;;;;-144.65;100.00;64500.88;5018007;28;20382;-77
2022/09/16 08:58:19;;;;;;;1999.90;999.90;;;;;;;-144.65;100.00;64500.88;5012325;28;20513;-77
2022/09/16 09:00:52;;;;;;;1999.90;999.90;;;;;;;-144.65;100.00;64500.88;5015249;28;20123;-77
2022/09/16 09:03:23;;;;;;;1999.90;999.90;;;;;;;-144.65;100.00;64500.88;5024153;28;20171;-77
2022/09/16 09:06:02;;;;;;;1999.90;999.90;;;;;;;-144.65;100.00;64500.88;5028392;28;20021;-77
2022/09/16 09:09:05;;;;;;;1999.90;999.90;;;;;;;-144.65;100.00;64500.88;5014929;28;20398;-76
2022/09/16 09:11:49;;;;;;;1999.90;999.90;;;;;;;-144.65;100.00;64500.88;4988687;28;20034;-77
2022/09/16 09:14:33;;;;;;;1999.90;999.90;;;;;;;-144.65;100.00;64500.88;5017348;28;20040;-78
2022/09/16 09:17:13;;;;;;;1999.90;999.90;;;;;;;-144.65;100.00;64500.88;5024273;28;20036;-77
2022/09/16 09:20:05;;;;;;;1999.90;999.90;;;;;;;-144.65;100.00;64500.88;5013755;28;20123;-78
2022/09/16 09:22:43;;;;;;;1999.90;999.90;;;;;;;-144.65;100.00;64500.88;5017490;28;20034;-77
2022/09/16 09:25:39;;;;;;;1999.90;999.90;;;;;;;-144.65;100.00;64500.88;5019935;28;20510;-79
2022/09/16 09:28:16;;;;;;;1999.90;999.90;;;;;;;-144.65;100.00;64500.88;5002522;28;20042;-78
2022/09/16 09:30:54;;;;;;;1999.90;999.90;;;;;;;-144.65;100.00;64500.88;5015594;28;20105;-78
2022/09/16 09:33:35;;;;;;;1999.90;999.90;;;;;;;-144.65;100.00;64500.88;5020007;28;20048;-78
2022/09/16 09:36:35;;;;;;;1999.90;999.90;;;;;;;-144.65;100.00;64500.88;5022132;28;20502;-79
2022/09/16 09:39:13;;;;;;;1999.90;999.90;;;;;;;-144.65;100.00;64500.88;5014788;28;20034;-78
2022/09/16 09:41:49;;;;;;;1999.90;999.90;;;;;;;-144.65;100.00;64500.88;5016097;28;20115;-78
2022/09/16 09:44:30;;;;;;;1999.90;999.90;;;;;;;-144.65;100.00;64500.88;4995334;28;20373;-77
2022/09/16 09:47:00;;;;;;;1999.90;999.90;;;;;;;-144.65;100.00;64500.88;4994748;28;20480;-77
2022/09/16 09:49:42;;;;;;;1999.90;999.90;;;;;;;-144.65;100.00;64500.88;5019555;28;20703;-78
2022/09/16 09:52:17;;;;;;;1999.90;999.90;;;;;;;-144.65;100.00;64500.88;5023565;28;20025;-77
2022/09/16 09:54:48;;;;;;;1999.90;999.90;;;;;;;-144.65;100.00;64500.88;5019739;28;20045;-77
2022/09/16 09:57:29;;;;;;;1999.90;999.90;;;;;;;-144.65;100.00;64500.88;5017987;28;20029;-78
2022/09/16 10:00:13;;;;;;;1999.90;999.90;;;;;;;-144.65;100.00;64500.88;5014819;28;20026;-78
2022/09/16 10:02:45;;;;;;;1999.90;999.90;;;;;;;-144.65;100.00;64500.88;5019987;28;20022;-78
2022/09/16 10:05:22;;;;;;;1999.90;999.90;;;;;;;-144.65;100.00;64500.88;5022611;28;20436;-76
2022/09/16 10:07:51;;;;;;;1999.90;999.90;;;;;;;-144.65;100.00;64500.88;5022238;28;20101;-77
2022/09/16 10:10:21;;;;;;;1999.90;999.90;;;;;;;-144.65;100.00;64500.88;5023248;28;20108;-77
2022/09/16 10:12:46;;;;;;;1999.90;999.90;;;;;;;-144.65;100.00;64500.88;5023474;28;20041;-80
2022/09/16 10:15:27;;;;;;;1999.90;999.90;;;;;;;-144.65;100.00;64500.88;5025128;28;20030;-80
2022/09/16 10:17:53;;;;;;;1999.90;999.90;;;;;;;-144.65;100.00;64500.88;5028089;28;20029;-80
2022/09/16 10:20:37;;;;;;;1999.90;999.90;;;;;;;-144.65;100.00;64500.88;5020809;28;20040;-79
2022/09/16 10:23:09;;;;;;;1999.90;999.90;;;;;;;-144.65;100.00;64500.88;5023576;28;20054;-79
2022/09/16 10:25:34;;;;;;;1999.90;999.90;;;;;;;-144.65;100.00;64500.88;5018296;28;20038;-79
2022/09/16 10:28:03;;;;;;;1999.90;999.90;;;;;;;-144.65;100.00;64500.88;5021271;28;20029;-78
2022/09/16 10:30:33;;;;;;;1999.90;999.90;;;;;;;-144.65;100.00;64500.88;5015627;28;20037;-79
2022/09/16 10:33:02;;;;;;;1999.90;999.90;;;;;;;-144.65;100.00;64500.88;5019910;28;20022;-79
2022/09/16 10:35:31;;;;;;;1999.90;999.90;;;;;;;-144.65;100.00;64500.88;5015666;28;20137;-80
2022/09/16 10:38:18;;;;;;;1999.90;999.90;;;;;;;-144.65;100.00;64500.88;5002257;28;20026;-81
2022/09/16 10:41:22;;;;;;;1999.90;999.90;;;;;;;-144.65;100.00;64500.88;5007811;28;20045;-81
2022/09/16 10:43:52;;;;;;;1999.90;999.90;;;;;;;-144.65;100.00;64500.88;5022550;28;20038;-81
2022/09/16 10:46:18;;;;;;;1999.90;999.90;;;;;;;-144.65;100.00;64500.88;5016508;28;20061;-79
2022/09/16 10:48:46;;;;;;;1999.90;999.90;;;;;;;-144.65;100.00;64500.88;5037986;28;20009;-76
2022/09/16 10:51:22;;;;;;;1999.90;999.90;;;;;;;-144.65;100.00;64500.88;5039391;28;20037;-76